Time;durP1;ratioP1;P1;durP2;ratioP2;P2;SDS_P1;SDS_P2;PMS_P1;PMS_P2;Temp;Humidity;BMP_temperature;BMP_pressure;BME280_temperature;BME280_humidity;BME280_pressure;Samples;Min_cycle;Max_cycle;Signal;HPM_P1;HPM_P2
2021/05/22 00:01:02;;;;;;;4.60;2.00;;;;;;;10.86;96.49;99442.44;5063342;28;20025;-71
2021/05/22 00:03:28;;;;;;;7.10;2.30;;;;;;;10.88;97.45;99437.44;5062422;28;20056;-71
2021/05/22 00:05:53;;;;;;;4.32;2.28;;;;;;;10.87;97.29;99436.69;5070277;28;20056;-72
2021/05/22 00:08:19;;;;;;;10.55;2.15;;;;;;;10.99;95.53;99437.44;5066766;28;20125;-73
2021/05/22 00:10:45;;;;;;;3.55;2.17;;;;;;;10.89;97.28;99441.69;5068051;28;20036;-72
2021/05/22 00:13:11;;;;;;;2.63;2.00;;;;;;;10.70;97.28;99437.47;5062394;28;20488;-71
2021/05/22 00:15:37;;;;;;;7.95;2.25;;;;;;;10.99;95.81;99429.38;5066141;28;20037;-73
2021/05/22 00:18:02;;;;;;;6.95;2.13;;;;;;;10.81;96.69;99438.25;5056159;28;20404;-71
2021/05/22 00:20:28;;;;;;;3.97;2.40;;;;;;;10.71;97.59;99430.94;5069260;28;20083;-72
2021/05/22 00:22:53;;;;;;;5.53;2.17;;;;;;;10.88;96.17;99435.53;5062897;28;20078;-71
2021/05/22 00:25:19;;;;;;;4.45;1.95;;;;;;;10.91;96.04;99428.59;5061763;28;20382;-71
2021/05/22 00:27:44;;;;;;;4.10;2.42;;;;;;;10.82;96.29;99418.22;5069663;28;20067;-71
2021/05/22 00:30:12;;;;;;;9.43;2.28;;;;;;;10.81;96.77;99413.22;5065214;28;20115;-72
2021/05/22 00:32:40;;;;;;;2.30;2.08;;;;;;;10.84;97.08;99407.84;5066745;28;20511;-72
2021/05/22 00:35:06;;;;;;;6.30;2.20;;;;;;;10.90;96.63;99414.38;5069050;28;20041;-72
2021/05/22 00:37:32;;;;;;;9.02;2.45;;;;;;;10.65;97.20;99410.16;5068137;28;20036;-72
2021/05/22 00:39:57;;;;;;;4.68;2.10;;;;;;;10.57;99.14;99400.53;5064679;28;20086;-72
2021/05/22 00:42:23;;;;;;;7.45;2.53;;;;;;;10.64;99.04;99412.09;5067855;28;20044;-71
2021/05/22 00:45:05;;;;;;;7.53;2.67;;;;;;;10.64;98.46;99409.41;5069361;28;20032;-72
2021/05/22 00:47:31;;;;;;;5.45;2.80;;;;;;;10.24;100.00;99409.75;5070546;28;20093;-72
2021/05/22 00:49:56;;;;;;;5.95;2.30;;;;;;;10.31;100.00;99420.53;5067101;28;20112;-71
2021/05/22 00:52:22;;;;;;;8.32;2.60;;;;;;;10.45;100.00;99425.16;5069430;28;20039;-72
2021/05/22 00:54:48;;;;;;;8.25;2.42;;;;;;;10.55;100.00;99427.09;5072561;28;20037;-71
2021/05/22 00:57:13;;;;;;;6.38;2.58;;;;;;;10.39;100.00;99418.63;5073755;28;20158;-73
2021/05/22 00:59:39;;;;;;;8.60;2.53;;;;;;;10.74;99.68;99429.41;5056304;28;20078;-72
2021/05/22 01:02:05;;;;;;;6.13;2.70;;;;;;;10.95;98.67;99429.38;5064521;28;20035;-70
2021/05/22 01:04:30;;;;;;;8.80;2.60;;;;;;;10.54;99.19;99426.31;5072818;28;20037;-73
2021/05/22 01:06:56;;;;;;;5.50;2.33;;;;;;;10.74;99.37;99415.94;5058681;28;20067;-73
2021/05/22 01:09:24;;;;;;;5.30;2.30;;;;;;;10.85;98.14;99406.69;5064240;28;20043;-73
2021/05/22 01:11:57;;;;;;;6.32;2.40;;;;;;;10.52;97.79;99409.78;5068807;28;20028;-72
2021/05/22 01:14:36;;;;;;;3.03;2.20;;;;;;;10.62;97.89;99409.03;5057928;28;20064;-74
2021/05/22 01:17:03;;;;;;;3.80;2.20;;;;;;;10.52;97.68;99420.56;5072683;28;20032;-73
2021/05/22 01:19:31;;;;;;;7.97;2.33;;;;;;;10.66;96.51;99417.88;5070067;28;20063;-73
2021/05/22 01:21:57;;;;;;;6.20;2.03;;;;;;;10.62;96.88;99413.63;5064953;28;20511;-73
2021/05/22 01:24:24;;;;;;;7.65;2.50;;;;;;;10.55;96.92;99414.38;5063097;28;20032;-74
2021/05/22 01:26:51;;;;;;;7.93;2.33;;;;;;;10.88;95.31;99408.59;5071065;28;20044;-73
2021/05/22 01:29:17;;;;;;;10.18;2.72;;;;;;;10.76;95.48;99411.69;5071623;28;20493;-74
2021/05/22 01:31:44;;;;;;;6.05;2.25;;;;;;;10.86;95.50;99407.44;5062401;28;20036;-73
2021/05/22 01:34:10;;;;;;;6.15;2.20;;;;;;;10.91;94.38;99404.38;5071181;28;20040;-73
2021/05/22 01:36:35;;;;;;;5.40;2.13;;;;;;;10.96;93.57;99405.88;5066803;28;20441;-72
2021/05/22 01:39:01;;;;;;;4.45;1.92;;;;;;;10.98;94.35;99412.44;5070307;28;20072;-73
2021/05/22 01:41:26;;;;;;;4.90;2.20;;;;;;;10.74;94.31;99397.84;5069749;28;20044;-72
2021/05/22 01:43:57;;;;;;;5.95;2.00;;;;;;;10.67;95.04;99411.31;5063519;28;20064;-73
2021/05/22 01:46:24;;;;;;;6.25;2.30;;;;;;;10.75;94.49;99406.69;5063669;28;20024;-73
2021/05/22 01:48:51;;;;;;;6.10;2.10;;;;;;;10.49;94.55;99410.53;5071725;28;20115;-73
2021/05/22 01:51:19;;;;;;;6.60;2.40;;;;;;;10.68;94.24;99394.00;5063724;28;20040;-72
2021/05/22 01:54:05;;;;;;;7.97;1.85;;;;;;;10.67;94.63;99395.16;5071299;28;20511;-73
2021/05/22 01:56:31;;;;;;;7.82;2.35;;;;;;;10.67;94.19;99395.16;5065913;28;20039;-71
2021/05/22 01:58:57;;;;;;;5.32;1.88;;;;;;;10.67;93.89;99400.53;5070158;28;20044;-73
2021/05/22 02:01:25;;;;;;;5.05;2.03;;;;;;;10.57;94.11;99404.00;5070273;28;20106;-73
2021/05/22 02:03:56;;;;;;;8.30;1.95;;;;;;;10.41;95.17;99400.94;5067441;28;20052;-72
2021/05/22 02:06:25;;;;;;;7.50;2.20;;;;;;;10.41;95.12;99397.47;5065710;28;20029;-73
2021/05/22 02:08:55;;;;;;;5.85;2.05;;;;;;;10.44;94.87;99391.31;5064895;28;20604;-73
2021/05/22 02:11:22;;;;;;;9.10;1.98;;;;;;;10.29;95.31;99398.63;5062855;28;20063;-72
2021/05/22 02:13:49;;;;;;;6.57;1.98;;;;;;;10.14;95.31;99397.06;5071516;28;20032;-73
2021/05/22 02:16:17;;;;;;;8.85;2.20;;;;;;;9.90;97.00;99389.69;5065827;28;20032;-73
2021/05/22 02:18:45;;;;;;;5.03;1.90;;;;;;;10.09;95.88;99402.78;5059214;28;20496;-73
2021/05/22 02:21:10;;;;;;;7.75;2.08;;;;;;;10.13;95.82;99402.81;5064328;28;20029;-73
2021/05/22 02:23:47;;;;;;;6.40;2.30;;;;;;;10.20;95.46;99400.16;5057832;28;20480;-73
2021/05/22 02:26:13;;;;;;;8.25;1.85;;;;;;;10.15;95.68;99405.91;5068542;28;20021;-72
2021/05/22 02:28:41;;;;;;;5.53;2.15;;;;;;;10.05;95.66;99399.31;5083461;22;20041;-73
2021/05/22 02:31:08;;;;;;;3.72;2.05;;;;;;;10.18;95.22;99400.53;5060690;28;20096;-74
2021/05/22 02:33:34;;;;;;;4.13;1.73;;;;;;;9.99;96.36;99392.78;5064554;28;20090;-74
2021/05/22 02:36:01;;;;;;;4.90;2.42;;;;;;;9.98;96.48;99400.09;5070679;28;20480;-74
2021/05/22 02:38:47;;;;;;;6.93;2.00;;;;;;;10.34;94.49;99402.84;5068734;28;20113;-73
2021/05/22 02:41:13;;;;;;;6.00;1.95;;;;;;;10.16;95.01;99402.06;5057479;28;20685;-73
2021/05/22 02:43:45;;;;;;;5.43;2.80;;;;;;;10.01;96.66;99395.84;5065423;28;20033;-74
2021/05/22 02:46:11;;;;;;;;;;;;;;;10.23;96.02;99394.78;5071049;28;20067;-74
2021/05/22 02:48:37;;;;;;;7.10;1.83;;;;;;;10.23;95.24;99388.63;5069164;28;19923;-73
2021/05/22 02:51:05;;;;;;;5.30;1.75;;;;;;;10.29;95.50;99395.94;5062639;28;20089;-73
2021/05/22 02:53:34;;;;;;;4.90;1.83;;;;;;;10.12;95.02;99385.16;5070374;28;20229;-73
2021/05/22 02:56:01;;;;;;;9.75;2.17;;;;;;;10.26;95.46;99383.22;5062958;28;20105;-74
2021/05/22 02:58:27;;;;;;;6.78;1.88;;;;;;;10.05;96.53;99388.56;5066339;28;20036;-73
2021/05/22 03:00:53;;;;;;;9.05;2.25;;;;;;;10.28;95.51;99383.63;5063971;28;20040;-73
2021/05/22 03:03:19;;;;;;;6.00;2.00;;;;;;;10.37;94.95;99385.94;5060531;28;20035;-74
2021/05/22 03:05:45;;;;;;;7.50;1.98;;;;;;;10.34;95.18;99381.31;5060855;28;20028;-74
2021/05/22 03:08:11;;;;;;;6.25;2.00;;;;;;;10.33;94.68;99374.41;5058765;28;20048;-73
2021/05/22 03:10:37;;;;;;;8.85;2.10;;;;;;;10.23;96.32;99372.47;5066083;28;20040;-74
2021/05/22 03:13:05;;;;;;;5.85;1.75;;;;;;;10.23;95.65;99370.56;5070374;28;20060;-73
2021/05/22 03:15:31;;;;;;;2.53;1.30;;;;;;;10.33;95.20;99364.41;5059592;28;20040;-73
2021/05/22 03:17:56;;;;;;;5.60;1.77;;;;;;;10.28;95.43;99372.84;5067483;28;20040;-73
2021/05/22 03:20:21;;;;;;;6.72;2.13;;;;;;;10.33;94.99;99359.03;5068711;28;20033;-73
2021/05/22 03:22:47;;;;;;;6.22;1.90;;;;;;;10.29;94.55;99360.97;5064945;28;20028;-74
2021/05/22 03:25:12;;;;;;;7.70;2.00;;;;;;;10.17;95.86;99361.34;5053769;28;20715;-73
2021/05/22 03:27:38;;;;;;;7.53;1.98;;;;;;;10.30;94.71;99359.03;5064005;28;20043;-73
2021/05/22 03:30:08;;;;;;;7.05;2.78;;;;;;;9.93;96.06;99360.13;5069790;28;20043;-74
2021/05/22 03:32:34;;;;;;;8.45;2.95;;;;;;;10.03;96.70;99363.97;5065158;28;20037;-74
2021/05/22 03:35:00;;;;;;;9.75;2.50;;;;;;;10.14;96.17;99364.03;5062665;28;20041;-74
2021/05/22 03:37:26;;;;;;;8.35;2.88;;;;;;;10.21;95.75;99361.31;5047582;28;20382;-73
2021/05/22 03:39:51;;;;;;;5.13;1.90;;;;;;;10.44;94.16;99356.34;5053666;28;20063;-73
2021/05/22 03:42:16;;;;;;;7.32;1.92;;;;;;;10.40;93.89;99352.88;5063664;28;20058;-73
2021/05/22 03:44:42;;;;;;;5.53;1.73;;;;;;;10.13;95.96;99355.19;5060811;28;20028;-73
2021/05/22 03:47:08;;;;;;;5.68;1.33;;;;;;;10.31;95.07;99355.97;5069210;28;20041;-74
2021/05/22 03:49:33;;;;;;;6.78;1.85;;;;;;;10.38;95.16;99345.19;5068503;28;20032;-73
2021/05/22 03:51:59;;;;;;;5.40;1.50;;;;;;;10.50;94.14;99352.09;5061155;28;20059;-74
2021/05/22 03:54:25;;;;;;;6.88;1.55;;;;;;;10.30;94.78;99359.78;5057500;28;20025;-73
2021/05/22 03:56:50;;;;;;;4.15;1.58;;;;;;;10.33;95.53;99348.28;5066163;28;20032;-73
2021/05/22 03:59:16;;;;;;;5.35;1.48;;;;;;;10.32;95.50;99354.78;5062495;28;20037;-74
2021/05/22 04:01:41;;;;;;;4.60;1.30;;;;;;;10.34;95.39;99349.81;5057488;28;20420;-73
2021/05/22 04:04:07;;;;;;;5.78;1.60;;;;;;;10.52;94.93;99344.41;5065449;28;20078;-73
2021/05/22 04:06:33;;;;;;;5.38;1.48;;;;;;;10.44;94.08;99351.72;5059360;28;20033;-74
2021/05/22 04:08:58;;;;;;;5.70;1.30;;;;;;;10.57;94.72;99354.78;5061846;28;20036;-74
2021/05/22 04:11:24;;;;;;;4.88;1.27;;;;;;;10.35;94.64;99355.97;5067265;28;20024;-73
2021/05/22 04:13:50;;;;;;;5.05;1.45;;;;;;;10.74;93.41;99352.06;5061314;28;20120;-73
2021/05/22 04:16:15;;;;;;;3.97;1.15;;;;;;;10.68;92.92;99356.31;5061974;28;20551;-74
2021/05/22 04:18:41;;;;;;;6.18;1.52;;;;;;;10.74;92.90;99354.75;5068418;28;20386;-74
2021/05/22 04:21:06;;;;;;;3.17;1.20;;;;;;;10.83;92.28;99355.16;5062582;28;20107;-73
2021/05/22 04:23:32;;;;;;;3.72;1.40;;;;;;;10.81;92.15;99349.38;5059912;28;20044;-74
2021/05/22 04:25:57;;;;;;;2.58;1.45;;;;;;;10.82;91.90;99356.28;5063516;28;20361;-73
2021/05/22 04:28:23;;;;;;;3.05;1.40;;;;;;;10.66;92.59;99350.56;5061934;28;20090;-74
2021/05/22 04:30:48;;;;;;;4.10;1.50;;;;;;;10.85;91.95;99352.06;5064504;28;20033;-73
2021/05/22 04:33:14;;;;;;;1.17;1.08;;;;;;;11.06;91.56;99352.00;5063052;28;20040;-74
2021/05/22 04:35:39;;;;;;;4.00;1.38;;;;;;;10.92;92.54;99343.19;5067917;28;20024;-74
2021/05/22 04:38:05;;;;;;;2.13;1.00;;;;;;;11.15;90.93;99352.34;5073295;28;20033;-74
2021/05/22 04:40:30;;;;;;;6.25;1.10;;;;;;;11.15;90.86;99352.34;5067253;28;20548;-74
2021/05/22 04:42:56;;;;;;;3.38;1.10;;;;;;;11.14;91.31;99353.50;5069339;28;20481;-74
2021/05/22 04:45:21;;;;;;;5.15;1.30;;;;;;;11.23;90.50;99347.69;5062984;28;20066;-74
2021/05/22 04:47:47;;;;;;;8.32;1.17;;;;;;;11.20;90.45;99348.50;5066836;28;20518;-73
2021/05/22 04:50:13;;;;;;;4.05;1.02;;;;;;;11.36;89.54;99356.91;5071857;28;20510;-73
2021/05/22 04:52:39;;;;;;;7.70;1.30;;;;;;;11.47;89.45;99363.00;5064651;28;20040;-74
2021/05/22 04:55:06;;;;;;;2.72;0.88;;;;;;;11.76;87.60;99359.81;5070049;28;20039;-75
2021/05/22 04:57:32;;;;;;;1.90;1.20;;;;;;;11.86;87.86;99355.53;5071780;28;20042;-74
2021/05/22 04:59:57;;;;;;;5.43;1.00;;;;;;;11.83;86.03;99361.69;5053420;28;20036;-74
2021/05/22 05:02:23;;;;;;;4.05;0.98;;;;;;;11.71;87.65;99356.78;5060641;28;20108;-74
2021/05/22 05:04:48;;;;;;;3.33;1.05;;;;;;;11.91;86.99;99363.19;5068417;28;20101;-74
2021/05/22 05:07:14;;;;;;;3.03;0.95;;;;;;;12.04;86.44;99353.44;5071655;28;20033;-74
2021/05/22 05:09:40;;;;;;;2.60;1.10;;;;;;;12.72;83.48;99359.09;5064875;28;20462;-74
2021/05/22 05:12:07;;;;;;;4.22;0.90;;;;;;;13.01;81.77;99363.00;5069795;28;20055;-74
2021/05/22 05:14:33;;;;;;;2.53;0.90;;;;;;;13.23;78.87;99356.25;5061165;28;20524;-74
2021/05/22 05:16:59;;;;;;;4.68;0.90;;;;;;;12.94;80.24;99363.88;5058338;28;20111;-73
2021/05/22 05:19:27;;;;;;;4.50;0.90;;;;;;;13.30;78.63;99364.25;5064302;28;20120;-74
2021/05/22 05:21:53;;;;;;;6.22;1.33;;;;;;;13.51;78.83;99359.34;5073140;28;20052;-74
2021/05/22 05:24:19;;;;;;;5.22;0.90;;;;;;;13.29;78.27;99358.09;5061656;28;20057;-74
2021/05/22 05:26:44;;;;;;;3.65;0.90;;;;;;;13.57;78.00;99354.25;5063090;28;20119;-74
2021/05/22 05:29:10;;;;;;;3.90;1.00;;;;;;;13.84;75.62;99348.91;5072117;28;20032;-74
2021/05/22 05:31:35;;;;;;;5.65;0.80;;;;;;;13.66;76.54;99357.25;5070059;28;20558;-74
2021/05/22 05:34:01;;;;;;;3.05;0.75;;;;;;;13.30;76.58;99348.03;5057221;28;20583;-74
2021/05/22 05:36:26;;;;;;;3.72;0.88;;;;;;;13.30;77.80;99353.44;5062226;28;20491;-74
2021/05/22 05:38:52;;;;;;;6.07;0.90;;;;;;;13.33;77.53;99355.34;5072924;28;20041;-73
2021/05/22 05:41:18;;;;;;;4.35;0.90;;;;;;;13.37;77.61;99346.03;5057275;28;20044;-74
2021/05/22 05:43:44;;;;;;;5.72;1.08;;;;;;;13.38;77.36;99350.25;5065350;28;20036;-74
2021/05/22 05:46:09;;;;;;;4.43;0.63;;;;;;;13.65;76.98;99352.22;5071024;28;20028;-74
2021/05/22 05:48:35;;;;;;;3.40;0.82;;;;;;;13.90;75.18;99345.31;5070406;28;20036;-74
2021/05/22 05:51:00;;;;;;;6.07;0.82;;;;;;;13.91;75.25;99338.72;5070496;28;20032;-74
2021/05/22 05:53:26;;;;;;;3.17;0.88;;;;;;;14.01;75.60;99345.16;5071206;28;20067;-74
2021/05/22 05:55:51;;;;;;;4.40;0.80;;;;;;;14.44;75.24;99341.38;5068638;28;20500;-73
2021/05/22 05:58:17;;;;;;;3.05;0.75;;;;;;;14.53;72.92;99340.88;5070821;28;20063;-74
2021/05/22 06:00:42;;;;;;;4.47;0.90;;;;;;;14.62;72.86;99359.28;5067675;28;20051;-74
2021/05/22 06:03:08;;;;;;;6.07;0.85;;;;;;;14.33;73.08;99337.31;5058922;28;20035;-74
2021/05/22 06:05:33;;;;;;;3.53;0.90;;;;;;;14.59;72.42;99349.28;5071172;28;20089;-74
2021/05/22 06:07:59;;;;;;;5.13;1.10;;;;;;;14.73;70.70;99357.16;5061443;28;20081;-74
2021/05/22 06:10:24;;;;;;;4.30;0.77;;;;;;;14.64;73.63;99360.41;5064711;28;20642;-73
2021/05/22 06:12:50;;;;;;;1.58;0.60;;;;;;;14.88;70.68;99340.22;5062499;28;20444;-74
2021/05/22 06:17:42;;;;;;;3.45;0.77;;;;;;;15.19;67.75;99343.50;5057323;28;20499;-74
2021/05/22 06:20:08;;;;;;;3.60;0.85;;;;;;;15.42;67.16;99339.97;5041893;28;20043;-74
2021/05/22 06:22:34;;;;;;;2.60;0.75;;;;;;;15.29;68.17;99354.13;5059086;28;20450;-74
2021/05/22 06:25:00;;;;;;;4.22;0.90;;;;;;;15.09;66.86;99339.81;5060391;28;20032;-74
2021/05/22 06:27:26;;;;;;;4.70;0.77;;;;;;;14.32;70.50;99344.66;5057972;28;20032;-74
2021/05/22 06:29:51;;;;;;;3.40;0.80;;;;;;;14.76;70.40;99340.06;5053929;28;20029;-75
2021/05/22 06:32:17;;;;;;;3.15;0.65;;;;;;;14.85;69.53;99345.69;5052765;28;20040;-73
2021/05/22 06:34:42;;;;;;;3.90;0.82;;;;;;;14.96;67.40;99357.13;5057367;28;20440;-73
2021/05/22 06:37:08;;;;;;;7.43;0.85;;;;;;;14.58;68.39;99339.59;5063033;28;20404;-73
2021/05/22 06:39:33;;;;;;;2.38;1.00;;;;;;;14.55;70.16;99340.44;5074461;28;20424;-73
2021/05/22 06:41:59;;;;;;;3.38;0.70;;;;;;;14.56;69.71;99350.09;5057899;28;20515;-73
2021/05/22 06:45:09;;;;;;;3.83;0.82;;;;;;;14.62;69.97;99346.50;5057359;28;20032;-74
2021/05/22 06:47:12;;;;;;;4.90;0.85;;;;;;;14.92;70.32;99334.75;5046790;28;20041;-74
2021/05/22 06:49:38;;;;;;;5.55;1.10;;;;;;;15.05;68.78;99339.13;5056686;28;20041;-74
2021/05/22 06:52:04;;;;;;;3.45;0.68;;;;;;;15.17;69.41;99343.94;5057899;28;20032;-73
2021/05/22 06:54:33;;;;;;;2.88;0.70;;;;;;;15.28;67.30;99349.91;5072875;28;20060;-74
2021/05/22 06:56:59;;;;;;;2.85;0.80;;;;;;;15.49;66.96;99351.44;5056436;28;20047;-74
2021/05/22 06:59:24;;;;;;;3.97;0.90;;;;;;;15.23;68.04;99344.22;5051367;28;20032;-75
2021/05/22 07:01:50;;;;;;;6.03;1.10;;;;;;;15.34;67.43;99347.47;5052979;28;20436;-75
2021/05/22 07:04:15;;;;;;;4.35;0.90;;;;;;;14.95;67.04;99340.09;5057587;28;20047;-74
2021/05/22 07:06:41;;;;;;;4.13;0.52;;;;;;;14.82;69.55;99341.13;5061295;28;20036;-75
2021/05/22 07:09:06;;;;;;;3.13;0.80;;;;;;;15.01;68.75;99337.66;5054759;28;20028;-73
2021/05/22 07:11:34;;;;;;;5.95;0.77;;;;;;;15.12;68.20;99363.38;5058337;28;20128;-74
2021/05/22 07:14:00;;;;;;;1.15;0.70;;;;;;;15.01;68.30;99348.50;5057711;28;20068;-74
2021/05/22 07:16:26;;;;;;;3.03;0.90;;;;;;;15.01;68.55;99345.78;5060038;28;20055;-74
2021/05/22 07:18:51;;;;;;;3.95;0.70;;;;;;;14.97;68.59;99342.38;5059522;28;20052;-75
2021/05/22 07:21:17;;;;;;;2.35;0.80;;;;;;;15.20;69.63;99345.03;5069517;28;20033;-74
2021/05/22 07:23:43;;;;;;;1.58;0.60;;;;;;;14.83;69.15;99348.81;5053635;28;20072;-73
2021/05/22 07:26:08;;;;;;;3.80;0.77;;;;;;;14.85;68.06;99335.63;5060469;28;20039;-74
2021/05/22 07:28:34;;;;;;;1.83;0.77;;;;;;;14.63;70.90;99334.50;5051698;28;20133;-74
2021/05/22 07:31:00;;;;;;;4.63;0.75;;;;;;;15.01;69.78;99340.38;5055152;28;20093;-74
2021/05/22 07:33:32;;;;;;;6.65;0.80;;;;;;;15.30;65.86;99333.97;5053557;28;20045;-74
2021/05/22 07:35:58;;;;;;;4.72;0.73;;;;;;;15.09;67.33;99345.25;5050894;28;20033;-75
2021/05/22 07:38:23;;;;;;;6.40;0.90;;;;;;;15.02;66.89;99329.09;5063318;28;20055;-75
2021/05/22 07:40:49;;;;;;;9.20;1.17;;;;;;;14.76;69.17;99342.78;5059939;28;20040;-74
2021/05/22 07:43:14;;;;;;;2.58;0.65;;;;;;;14.63;68.43;99333.72;5051007;28;20024;-73
2021/05/22 07:45:40;;;;;;;1.48;0.50;;;;;;;14.80;68.35;99340.78;5053861;28;20132;-74
2021/05/22 07:48:06;;;;;;;4.88;0.82;;;;;;;14.92;68.22;99349.06;5059577;28;20056;-75
2021/05/22 07:50:32;;;;;;;2.03;0.60;;;;;;;14.89;68.73;99346.41;5063055;28;20032;-74
2021/05/22 07:52:58;;;;;;;1.50;0.82;;;;;;;14.87;69.01;99335.22;5057504;28;20062;-75
2021/05/22 07:55:24;;;;;;;6.05;0.70;;;;;;;14.74;68.77;99335.06;5078347;28;20031;-75
2021/05/22 07:57:50;;;;;;;4.07;0.70;;;;;;;14.99;68.74;99350.88;5060630;28;20036;-75
2021/05/22 08:00:16;;;;;;;4.05;0.80;;;;;;;14.97;69.30;99345.09;5065619;28;20064;-75
2021/05/22 08:02:43;;;;;;;3.13;0.77;;;;;;;15.08;67.74;99343.72;5058982;28;20047;-75
2021/05/22 08:05:10;;;;;;;3.50;0.50;;;;;;;15.27;67.69;99348.38;5070906;28;20064;-75
2021/05/22 08:07:35;;;;;;;3.28;0.65;;;;;;;15.22;67.10;99348.88;5069633;28;20041;-75
2021/05/22 08:10:03;;;;;;;3.15;0.55;;;;;;;14.66;68.59;99336.38;5059233;28;20524;-75
2021/05/22 08:12:28;;;;;;;4.85;0.60;;;;;;;14.80;68.98;99338.84;5058873;28;20029;-74
2021/05/22 08:14:54;;;;;;;2.78;0.60;;;;;;;15.13;66.81;99337.03;5056505;28;20052;-74
2021/05/22 08:17:20;;;;;;;2.13;0.60;;;;;;;15.18;66.60;99328.41;5061661;28;20025;-75
2021/05/22 08:19:46;;;;;;;6.80;1.10;;;;;;;15.37;66.70;99333.06;5065148;28;20040;-75
2021/05/22 08:22:12;;;;;;;3.72;0.85;;;;;;;15.20;68.32;99345.81;5058584;28;20036;-75
2021/05/22 08:24:37;;;;;;;2.90;0.57;;;;;;;15.33;67.93;99346.69;5068499;28;20025;-75
2021/05/22 08:27:03;;;;;;;2.35;0.60;;;;;;;14.94;69.21;99346.69;5054809;28;20059;-74
2021/05/22 08:29:29;;;;;;;6.97;0.80;;;;;;;14.95;68.74;99350.16;5060915;28;20132;-74
2021/05/22 08:31:54;;;;;;;2.63;0.63;;;;;;;14.74;69.16;99345.91;5056287;28;20083;-75
2021/05/22 08:34:20;;;;;;;2.15;0.68;;;;;;;15.08;68.78;99351.84;5066167;23;20461;-73
2021/05/22 08:36:45;;;;;;;3.00;0.73;;;;;;;14.85;69.43;99356.53;5043728;28;20028;-72
2021/05/22 08:39:11;;;;;;;4.72;0.90;;;;;;;15.18;68.38;99347.38;5034116;28;20033;-72
2021/05/22 08:41:37;;;;;;;4.30;0.98;;;;;;;15.04;68.75;99350.41;5056254;28;20044;-73
2021/05/22 08:44:04;;;;;;;4.25;0.80;;;;;;;15.30;68.29;99350.25;5042353;28;20037;-72
2021/05/22 08:46:30;;;;;;;1.65;0.80;;;;;;;15.24;69.38;99346.50;5056221;28;20096;-72
2021/05/22 08:48:57;;;;;;;3.00;0.93;;;;;;;15.34;69.63;99358.31;5048323;28;20063;-73
2021/05/22 08:51:23;;;;;;;1.35;0.80;;;;;;;15.35;69.50;99349.75;5034050;28;20045;-73
2021/05/22 08:53:49;;;;;;;2.28;0.90;;;;;;;15.04;71.74;99359.28;5052950;28;20033;-72
2021/05/22 08:56:14;;;;;;;6.22;1.00;;;;;;;14.53;74.43;99356.34;5048360;28;20079;-73
2021/05/22 08:58:40;;;;;;;2.47;0.70;;;;;;;14.55;74.24;99362.88;5052586;28;20036;-72
2021/05/22 09:01:06;;;;;;;2.58;1.02;;;;;;;14.51;74.78;99358.69;5050273;28;20428;-72
2021/05/22 09:03:32;;;;;;;3.70;0.82;;;;;;;14.68;73.97;99358.41;5032864;28;20029;-72
2021/05/22 09:05:58;;;;;;;3.45;0.90;;;;;;;14.64;74.24;99357.69;5038596;28;20041;-72
2021/05/22 09:08:23;;;;;;;2.45;0.82;;;;;;;14.62;73.43;99349.22;5035089;28;20043;-72
2021/05/22 09:10:53;;;;;;;2.10;0.80;;;;;;;14.21;76.23;99343.28;5035502;28;20033;-72
2021/05/22 09:13:25;;;;;;;3.45;0.80;;;;;;;14.68;75.18;99357.63;5033143;28;20033;-72
2021/05/22 09:15:56;;;;;;;2.58;0.80;;;;;;;14.90;74.42;99361.50;5045741;28;20071;-72
2021/05/22 09:18:24;;;;;;;3.33;0.73;;;;;;;14.83;73.64;99353.47;5046635;28;20099;-72
2021/05/22 09:20:59;;;;;;;2.40;0.70;;;;;;;15.16;72.64;99366.03;5050077;28;20090;-72
2021/05/22 09:23:29;;;;;;;5.65;1.02;;;;;;;14.96;71.41;99349.00;5047492;28;20031;-72
2021/05/22 09:25:57;;;;;;;3.45;0.88;;;;;;;14.70;73.78;99366.09;5051480;28;20762;-72
2021/05/22 09:28:25;;;;;;;3.35;0.95;;;;;;;14.72;77.80;99366.47;5054809;28;20056;-72
2021/05/22 09:30:52;;;;;;;5.20;0.95;;;;;;;14.66;78.83;99368.13;5053188;28;20037;-72
2021/05/22 09:33:21;;;;;;;6.90;0.90;;;;;;;14.69;82.13;99386.28;5050554;28;20036;-72
2021/05/22 09:35:56;;;;;;;6.50;1.13;;;;;;;14.46;84.81;99384.31;5064407;28;20460;-72
2021/05/22 09:38:34;;;;;;;4.45;1.00;;;;;;;14.45;86.96;99388.97;5050511;28;20036;-72
2021/05/22 09:41:11;;;;;;;4.10;1.00;;;;;;;14.33;88.31;99394.97;5048114;28;20082;-72
2021/05/22 09:43:37;;;;;;;3.40;0.70;;;;;;;13.88;89.70;99395.63;5052795;28;20110;-72
2021/05/22 09:46:07;;;;;;;2.10;0.98;;;;;;;13.72;90.37;99403.56;5052267;28;20017;-72
2021/05/22 09:48:34;;;;;;;2.58;0.95;;;;;;;13.97;91.55;99401.28;5048532;28;20040;-72
2021/05/22 09:51:02;;;;;;;3.53;1.27;;;;;;;14.22;90.40;99402.47;5045777;28;20033;-71
2021/05/22 09:53:30;;;;;;;6.22;1.13;;;;;;;14.27;93.08;99393.09;5059338;28;20041;-72
2021/05/22 09:56:11;;;;;;;3.58;1.00;;;;;;;14.37;92.27;99398.41;5067404;28;20053;-72
2021/05/22 09:58:40;;;;;;;3.65;1.33;;;;;;;14.16;93.98;99397.91;5023340;28;20437;-72
2021/05/22 10:01:06;;;;;;;3.72;1.17;;;;;;;14.02;92.52;99404.28;5034396;28;20032;-72
2021/05/22 10:03:32;;;;;;;5.82;1.17;;;;;;;13.88;94.52;99404.47;5043031;28;20050;-72
2021/05/22 10:05:57;;;;;;;5.57;1.13;;;;;;;13.62;94.92;99413.34;5034468;28;20029;-72
2021/05/22 10:08:23;;;;;;;5.60;1.33;;;;;;;13.87;93.67;99404.91;5028473;28;20436;-72
2021/05/22 10:10:53;;;;;;;2.88;1.20;;;;;;;13.82;96.60;99400.69;5029540;28;20037;-72
2021/05/22 10:13:20;;;;;;;6.03;1.92;;;;;;;13.94;94.10;99396.66;5028901;28;20102;-72
2021/05/22 10:15:48;;;;;;;5.18;1.38;;;;;;;13.72;96.06;99401.63;5033931;28;20033;-72
2021/05/22 10:18:16;;;;;;;6.85;2.40;;;;;;;13.77;95.05;99403.09;5036366;28;20032;-72
2021/05/22 10:20:42;;;;;;;4.43;1.30;;;;;;;13.97;92.97;99409.41;5045147;28;20032;-73
2021/05/22 10:23:08;;;;;;;2.30;1.08;;;;;;;13.94;94.50;99400.16;5059816;28;20374;-72
2021/05/22 10:25:34;;;;;;;4.22;1.20;;;;;;;13.97;91.97;99396.66;5034731;28;20995;-72
2021/05/22 10:28:00;;;;;;;1.23;0.60;;;;;;;13.43;92.39;99403.16;5033089;28;20033;-72
2021/05/22 10:30:26;;;;;;;4.30;1.20;;;;;;;13.58;94.26;99394.44;5036686;28;20020;-72
2021/05/22 10:33:06;;;;;;;3.28;1.10;;;;;;;13.74;92.19;99387.69;5028603;28;20047;-72
2021/05/22 10:35:56;;;;;;;7.38;1.10;;;;;;;13.52;91.25;99403.41;5033765;28;20052;-72
2021/05/22 10:38:33;;;;;;;5.28;1.00;;;;;;;13.37;93.12;99394.72;5037188;28;20032;-72
2021/05/22 10:41:01;;;;;;;3.53;1.10;;;;;;;13.67;91.52;99417.53;5047666;28;20024;-72
2021/05/22 10:43:55;;;;;;;1.95;0.82;;;;;;;13.42;89.69;99399.66;5060509;28;20036;-72
2021/05/22 10:46:21;;;;;;;3.17;0.90;;;;;;;13.35;90.11;99407.09;5034125;28;20028;-72
2021/05/22 10:48:47;;;;;;;4.38;1.10;;;;;;;13.29;93.59;99400.59;5050223;28;20093;-72
2021/05/22 10:51:34;;;;;;;2.05;1.00;;;;;;;13.65;92.70;99406.34;5063021;28;20036;-72
2021/05/22 10:54:03;;;;;;;5.07;1.20;;;;;;;13.41;95.09;99391.97;5052112;28;20052;-72
2021/05/22 10:56:29;;;;;;;2.30;1.10;;;;;;;13.20;93.84;99403.03;5051852;28;20041;-72
2021/05/22 10:58:57;;;;;;;2.85;1.13;;;;;;;13.59;94.06;99404.09;5054873;28;20044;-72
2021/05/22 11:01:22;;;;;;;2.80;1.10;;;;;;;13.50;94.58;99411.16;5036374;28;20029;-72
2021/05/22 11:04:21;;;;;;;2.10;1.17;;;;;;;13.42;94.78;99407.00;5028465;28;20378;-72
2021/05/22 11:06:56;;;;;;;5.78;0.90;;;;;;;13.35;95.55;99404.38;5048722;28;20044;-72
2021/05/22 11:09:25;;;;;;;1.55;0.90;;;;;;;13.00;95.73;99405.50;5040375;28;20029;-72
2021/05/22 11:12:00;;;;;;;1.20;1.10;;;;;;;13.14;97.36;99410.78;5050838;28;20029;-72
2021/05/22 11:14:34;;;;;;;5.78;1.08;;;;;;;13.13;97.19;99409.25;5056176;28;20118;-72
2021/05/22 11:17:00;;;;;;;2.13;0.88;;;;;;;13.15;96.70;99416.97;5023704;28;20029;-72
2021/05/22 11:19:25;;;;;;;6.07;1.40;;;;;;;13.02;97.17;99418.63;5039259;28;20393;-72
2021/05/22 11:22:14;;;;;;;2.65;1.20;;;;;;;13.18;96.68;99410.75;5045378;28;20040;-72
2021/05/22 11:25:02;;;;;;;1.90;1.05;;;;;;;13.30;97.23;99410.22;5039035;28;20037;-72
2021/05/22 11:27:43;;;;;;;5.85;1.30;;;;;;;12.97;100.00;99416.34;5044653;28;20041;-72
2021/05/22 11:30:09;;;;;;;1.40;1.10;;;;;;;13.17;98.70;99420.81;5046836;28;20090;-73
2021/05/22 11:33:02;;;;;;;4.32;1.40;;;;;;;13.26;98.09;99418.38;5051970;28;20036;-73
2021/05/22 11:35:31;;;;;;;3.80;1.17;;;;;;;13.32;96.88;99413.28;5048257;28;20120;-72
2021/05/22 11:38:12;;;;;;;3.38;1.40;;;;;;;13.33;97.10;99420.25;5062756;28;20036;-72